Time;durP1;ratioP1;P1;durP2;ratioP2;P2;SDS_P1;SDS_P2;PMS_P1;PMS_P2;Temp;Humidity;BMP_temperature;BMP_pressure;BME280_temperature;BME280_humidity;BME280_pressure;Samples;Min_cycle;Max_cycle;Signal;HPM_P1;HPM_P2
2023/06/21 00:00:38;;;;;;;22.50;17.30;;;;;;;;;;107098;1253;61107;-80
2023/06/21 00:03:25;;;;;;;19.90;16.50;;;;;;;;;;107091;1254;61289;-80
2023/06/21 00:05:51;;;;;;;22.60;17.00;;;;;;;;;;107097;1251;61136;-80
2023/06/21 00:08:18;;;;;;;22.80;17.10;;;;;;;;;;107100;1251;61233;-80
2023/06/21 00:10:45;;;;;;;21.70;17.50;;;;;;;;;;107111;1250;61232;-80
2023/06/21 00:13:11;;;;;;;18.60;16.60;;;;;;;;;;107123;1250;61971;-80
2023/06/21 00:15:38;;;;;;;20.50;17.60;;;;;;;;;;107148;1253;61243;-80
2023/06/21 00:18:04;;;;;;;20.30;17.20;;;;;;;;;;107074;1253;61336;-80
2023/06/21 00:20:31;;;;;;;20.80;16.40;;;;;;;;;;106996;1251;61256;-80
2023/06/21 00:22:57;;;;;;;21.90;17.30;;;;;;;;;;107106;1251;59631;-80
2023/06/21 00:25:24;;;;;;;21.10;17.40;;;;;;;;;;107045;1252;61270;-80
2023/06/21 00:27:50;;;;;;;21.30;18.40;;;;;;;;;;107103;1255;61348;-80
2023/06/21 00:30:16;;;;;;;22.30;17.90;;;;;;;;;;107089;1255;61501;-80
2023/06/21 00:32:43;;;;;;;25.20;17.90;;;;;;;;;;107092;1252;61346;-80
2023/06/21 00:35:10;;;;;;;21.30;17.10;;;;;;;;;;107070;1252;61329;-80
2023/06/21 00:37:37;;;;;;;24.00;18.70;;;;;;;;;;107105;1253;61155;-80
2023/06/21 00:40:07;;;;;;;22.20;17.20;;;;;;;;;;107099;1251;61259;-79
2023/06/21 00:42:33;;;;;;;20.00;16.10;;;;;;;;;;107064;1253;61280;-80
2023/06/21 00:45:00;;;;;;;22.60;17.60;;;;;;;;;;107110;1251;61276;-80
2023/06/21 00:47:26;;;;;;;21.90;17.50;;;;;;;;;;107153;1254;61340;-80
2023/06/21 00:49:53;;;;;;;23.20;17.50;;;;;;;;;;107179;1254;61353;-80
2023/06/21 00:52:19;;;;;;;22.80;18.80;;;;;;;;;;107111;1251;61141;-80
2023/06/21 00:54:45;;;;;;;23.10;17.20;;;;;;;;;;107125;1251;61339;-80
2023/06/21 00:57:12;;;;;;;23.80;16.40;;;;;;;;;;107057;1251;61273;-80
2023/06/21 00:59:38;;;;;;;23.40;17.80;;;;;;;;;;107113;1253;61220;-79
2023/06/21 01:02:05;;;;;;;24.80;17.60;;;;;;;;;;107097;1253;60956;-80
2023/06/21 01:04:32;;;;;;;22.40;18.10;;;;;;;;;;107093;1253;61316;-80
2023/06/21 01:06:58;;;;;;;20.90;16.50;;;;;;;;;;107084;1251;61273;-79
2023/06/21 01:09:43;;;;;;;19.30;17.30;;;;;;;;;;107116;1251;61264;-80
2023/06/21 01:12:25;;;;;;;21.10;17.90;;;;;;;;;;107118;1254;61209;-80
2023/06/21 01:14:55;;;;;;;19.60;16.90;;;;;;;;;;107149;1251;63161;-80
2023/06/21 01:17:21;;;;;;;20.10;16.20;;;;;;;;;;107117;1254;61337;-80
2023/06/21 01:19:50;;;;;;;22.50;16.30;;;;;;;;;;107140;1255;61285;-80
2023/06/21 01:22:23;;;;;;;24.10;17.60;;;;;;;;;;107113;1255;61912;-80
2023/06/21 01:25:09;;;;;;;21.40;16.90;;;;;;;;;;107096;1253;59787;-80
2023/06/21 01:27:42;;;;;;;22.70;18.10;;;;;;;;;;107072;1251;63472;-80
2023/06/21 01:30:09;;;;;;;21.60;17.30;;;;;;;;;;107167;1255;61256;-80
2023/06/21 01:32:37;;;;;;;25.50;18.10;;;;;;;;;;107052;1251;61262;-80
2023/06/21 01:35:04;;;;;;;21.70;18.00;;;;;;;;;;107004;1251;61141;-80
2023/06/21 01:37:30;;;;;;;21.50;18.50;;;;;;;;;;107084;1251;59866;-80
2023/06/21 01:39:58;;;;;;;20.60;17.50;;;;;;;;;;107085;1252;61348;-80
2023/06/21 01:42:24;;;;;;;20.70;17.40;;;;;;;;;;107039;1252;61130;-80
2023/06/21 01:44:51;;;;;;;20.70;17.30;;;;;;;;;;107039;1251;59841;-80
2023/06/21 01:47:18;;;;;;;23.10;18.20;;;;;;;;;;106979;1252;61233;-80
2023/06/21 01:49:45;;;;;;;25.70;19.40;;;;;;;;;;107905;1255;61245;-80
2023/06/21 01:52:11;;;;;;;19.60;17.10;;;;;;;;;;107099;1253;61349;-79
2023/06/21 01:54:40;;;;;;;21.60;18.50;;;;;;;;;;107134;1254;61286;-80
2023/06/21 01:57:07;;;;;;;23.00;18.60;;;;;;;;;;107037;1250;62426;-80
2023/06/21 01:59:33;;;;;;;22.10;18.10;;;;;;;;;;107121;1251;62199;-80
2023/06/21 02:01:59;;;;;;;22.70;17.60;;;;;;;;;;107063;1254;61219;-79
2023/06/21 02:04:26;;;;;;;33.00;18.30;;;;;;;;;;107065;1251;61269;-80
2023/06/21 02:06:52;;;;;;;26.20;18.50;;;;;;;;;;107112;1251;61307;-80
2023/06/21 02:09:19;;;;;;;22.80;18.50;;;;;;;;;;107051;1251;61413;-80
2023/06/21 02:11:46;;;;;;;23.80;17.70;;;;;;;;;;107103;1255;61399;-80
2023/06/21 02:14:12;;;;;;;23.90;16.10;;;;;;;;;;107107;1256;61777;-80
2023/06/21 02:16:39;;;;;;;24.20;17.50;;;;;;;;;;107155;1253;62301;-80
2023/06/21 02:19:05;;;;;;;22.10;16.90;;;;;;;;;;107116;1253;61271;-80
2023/06/21 02:21:32;;;;;;;19.80;15.90;;;;;;;;;;107145;1251;61262;-80
2023/06/21 02:23:58;;;;;;;22.40;17.00;;;;;;;;;;107062;1251;61336;-80
2023/06/21 02:26:25;;;;;;;19.90;16.30;;;;;;;;;;107211;1253;61106;-80
2023/06/21 02:28:52;;;;;;;22.20;17.00;;;;;;;;;;107240;1253;62868;-80
2023/06/21 02:31:19;;;;;;;22.60;17.90;;;;;;;;;;107148;1253;61279;-79
2023/06/21 02:33:46;;;;;;;20.90;16.90;;;;;;;;;;107114;1253;60627;-80
2023/06/21 02:36:13;;;;;;;20.00;17.10;;;;;;;;;;107151;1251;61190;-80
2023/06/21 02:38:40;;;;;;;20.30;17.20;;;;;;;;;;107136;1251;59198;-79
2023/06/21 02:41:06;;;;;;;20.50;17.90;;;;;;;;;;107134;1254;61245;-79
2023/06/21 02:43:33;;;;;;;23.70;17.50;;;;;;;;;;107172;1255;61348;-80
2023/06/21 02:46:00;;;;;;;21.90;17.10;;;;;;;;;;107080;1256;60874;-80
2023/06/21 02:48:27;;;;;;;21.70;17.00;;;;;;;;;;107103;1250;61361;-80
2023/06/21 02:50:53;;;;;;;20.10;16.70;;;;;;;;;;107147;1250;61247;-80
2023/06/21 02:53:19;;;;;;;21.60;17.80;;;;;;;;;;107083;1254;61010;-80
2023/06/21 02:55:46;;;;;;;23.40;17.20;;;;;;;;;;107147;1250;61300;-79
2023/06/21 02:58:12;;;;;;;19.90;17.10;;;;;;;;;;107110;1257;61346;-80
2023/06/21 03:00:40;;;;;;;21.10;17.50;;;;;;;;;;107170;1251;61262;-80
2023/06/21 03:03:07;;;;;;;21.30;17.50;;;;;;;;;;106748;1250;61174;-80
2023/06/21 03:05:39;;;;;;;19.50;16.40;;;;;;;;;;106560;1251;61237;-80
2023/06/21 03:08:09;;;;;;;17.90;15.80;;;;;;;;;;107025;1251;61217;-80
2023/06/21 03:10:36;;;;;;;22.70;16.50;;;;;;;;;;107115;1257;61263;-80
2023/06/21 03:13:03;;;;;;;19.00;16.90;;;;;;;;;;107135;1250;61339;-80
2023/06/21 03:15:29;;;;;;;23.30;18.70;;;;;;;;;;107181;1254;61202;-80
2023/06/21 03:17:56;;;;;;;27.60;18.40;;;;;;;;;;107046;1256;61210;-80
2023/06/21 03:20:22;;;;;;;25.70;18.20;;;;;;;;;;107177;1256;61389;-80
2023/06/21 03:22:49;;;;;;;22.00;16.20;;;;;;;;;;107078;1251;61360;-80
2023/06/21 03:25:16;;;;;;;21.50;17.80;;;;;;;;;;107058;1253;62136;-80
2023/06/21 03:27:42;;;;;;;22.70;17.80;;;;;;;;;;107124;1251;61702;-79
2023/06/21 03:30:12;;;;;;;22.80;18.10;;;;;;;;;;107106;1254;61340;-80
2023/06/21 03:32:47;;;;;;;22.30;18.00;;;;;;;;;;107011;1255;61262;-80
2023/06/21 03:35:14;;;;;;;25.00;17.00;;;;;;;;;;107029;1257;61446;-80
2023/06/21 03:37:41;;;;;;;24.80;17.50;;;;;;;;;;107017;1251;59156;-80
2023/06/21 03:40:10;;;;;;;24.60;18.10;;;;;;;;;;107219;1254;61326;-80
2023/06/21 03:42:37;;;;;;;21.60;17.40;;;;;;;;;;107117;1254;62540;-81
2023/06/21 03:45:04;;;;;;;23.10;17.10;;;;;;;;;;107015;1251;61373;-81
2023/06/21 03:47:31;;;;;;;21.50;17.30;;;;;;;;;;106976;1251;61143;-80
2023/06/21 03:49:57;;;;;;;21.50;17.00;;;;;;;;;;107066;1251;61260;-80
2023/06/21 03:52:24;;;;;;;20.90;16.20;;;;;;;;;;107568;1254;61207;-80
2023/06/21 03:54:51;;;;;;;24.30;18.00;;;;;;;;;;107087;1251;61248;-80
2023/06/21 03:57:18;;;;;;;25.50;16.70;;;;;;;;;;107068;1251;61208;-80
2023/06/21 03:59:44;;;;;;;19.70;15.50;;;;;;;;;;107111;1257;61210;-80
2023/06/21 04:02:10;;;;;;;23.70;17.70;;;;;;;;;;107107;1254;61253;-80
2023/06/21 04:04:38;;;;;;;22.20;16.00;;;;;;;;;;107051;1255;61308;-80
2023/06/21 04:07:07;;;;;;;22.10;17.00;;;;;;;;;;107077;1253;62822;-80
2023/06/21 04:09:33;;;;;;;22.50;16.10;;;;;;;;;;107031;1253;61348;-81
2023/06/21 04:12:00;;;;;;;22.40;17.30;;;;;;;;;;107047;1251;61231;-80
2023/06/21 04:14:26;;;;;;;21.40;16.00;;;;;;;;;;107009;1255;61328;-81
2023/06/21 04:16:53;;;;;;;20.20;17.80;;;;;;;;;;107056;1257;61254;-80
2023/06/21 04:19:19;;;;;;;20.20;17.70;;;;;;;;;;107035;1251;61139;-80
2023/06/21 04:21:45;;;;;;;25.60;17.90;;;;;;;;;;107075;1251;61338;-80
2023/06/21 04:24:12;;;;;;;21.50;16.90;;;;;;;;;;106993;1251;61238;-80
2023/06/21 04:26:38;;;;;;;22.30;17.10;;;;;;;;;;107040;1255;61290;-80
2023/06/21 04:29:04;;;;;;;24.70;18.80;;;;;;;;;;107063;1251;61355;-81
2023/06/21 04:31:31;;;;;;;21.30;17.90;;;;;;;;;;106979;1251;61174;-80
2023/06/21 04:33:57;;;;;;;25.20;17.10;;;;;;;;;;106994;1251;61225;-81
2023/06/21 04:36:24;;;;;;;22.90;16.50;;;;;;;;;;107015;1255;61340;-80
2023/06/21 04:38:51;;;;;;;26.00;17.50;;;;;;;;;;106974;1256;61358;-80
2023/06/21 04:41:17;;;;;;;19.80;17.30;;;;;;;;;;107013;1251;61385;-80
2023/06/21 04:43:44;;;;;;;20.50;16.80;;;;;;;;;;107005;1256;61730;-80
2023/06/21 04:46:10;;;;;;;24.00;18.30;;;;;;;;;;107451;1254;61349;-81
2023/06/21 04:48:37;;;;;;;21.60;17.30;;;;;;;;;;107054;1251;61374;-81
2023/06/21 04:51:04;;;;;;;24.70;17.40;;;;;;;;;;107536;1254;61281;-80
2023/06/21 04:53:30;;;;;;;21.10;17.20;;;;;;;;;;107017;1251;61266;-80
2023/06/21 04:55:57;;;;;;;21.80;17.80;;;;;;;;;;107355;1254;61281;-80
2023/06/21 04:58:24;;;;;;;21.40;17.20;;;;;;;;;;107054;1252;61225;-80
2023/06/21 05:00:50;;;;;;;20.40;17.00;;;;;;;;;;107076;1251;61218;-81
2023/06/21 05:03:17;;;;;;;20.50;17.50;;;;;;;;;;107002;1251;61119;-81
2023/06/21 05:05:43;;;;;;;21.80;16.40;;;;;;;;;;107067;1254;61323;-80
2023/06/21 05:08:09;;;;;;;24.70;17.20;;;;;;;;;;106955;1254;61179;-81
2023/06/21 05:10:36;;;;;;;27.20;17.50;;;;;;;;;;107095;1253;61376;-81
2023/06/21 05:13:02;;;;;;;21.30;16.80;;;;;;;;;;107008;1254;61339;-80
2023/06/21 05:15:29;;;;;;;20.40;15.60;;;;;;;;;;107298;1254;61292;-80
2023/06/21 05:17:55;;;;;;;20.70;16.50;;;;;;;;;;107020;1251;61218;-81
2023/06/21 05:20:22;;;;;;;23.20;16.10;;;;;;;;;;107007;1254;61336;-81
2023/06/21 05:22:48;;;;;;;21.70;15.60;;;;;;;;;;106998;1254;61227;-81
2023/06/21 05:25:15;;;;;;;24.30;16.20;;;;;;;;;;107048;1251;61345;-80
2023/06/21 05:27:41;;;;;;;21.10;15.90;;;;;;;;;;107016;1251;61684;-81
2023/06/21 05:30:08;;;;;;;24.40;16.80;;;;;;;;;;107010;1251;61539;-81
2023/06/21 05:32:34;;;;;;;18.40;15.10;;;;;;;;;;106990;1255;61401;-81
2023/06/21 05:35:00;;;;;;;19.80;15.70;;;;;;;;;;107016;1254;61307;-81
2023/06/21 05:37:27;;;;;;;28.70;16.30;;;;;;;;;;107073;1251;61282;-81
2023/06/21 05:39:53;;;;;;;18.70;14.40;;;;;;;;;;107039;1253;60251;-81
2023/06/21 05:42:20;;;;;;;18.20;15.60;;;;;;;;;;107221;1254;61257;-81
2023/06/21 05:44:46;;;;;;;19.50;15.70;;;;;;;;;;107212;1254;61315;-81
2023/06/21 05:47:14;;;;;;;25.10;16.60;;;;;;;;;;107052;1255;61336;-81
2023/06/21 05:49:40;;;;;;;27.10;16.00;;;;;;;;;;106981;1251;61362;-81
2023/06/21 05:52:06;;;;;;;22.00;15.50;;;;;;;;;;106968;1251;61390;-81
2023/06/21 05:54:33;;;;;;;17.70;15.80;;;;;;;;;;107558;1251;61282;-81
2023/06/21 05:56:59;;;;;;;18.60;13.60;;;;;;;;;;107059;1254;61219;-81
2023/06/21 05:59:26;;;;;;;23.50;14.60;;;;;;;;;;107313;1253;61198;-81
2023/06/21 06:01:52;;;;;;;17.30;14.30;;;;;;;;;;107097;1253;61331;-81
2023/06/21 06:04:18;;;;;;;15.30;13.70;;;;;;;;;;107109;1251;61271;-81
2023/06/21 06:06:46;;;;;;;18.80;14.40;;;;;;;;;;107268;1263;61128;-81
2023/06/21 06:09:13;;;;;;;23.70;15.00;;;;;;;;;;107175;1254;61224;-81
2023/06/21 06:11:39;;;;;;;19.50;14.70;;;;;;;;;;107124;1251;61240;-81
2023/06/21 06:14:05;;;;;;;19.30;14.00;;;;;;;;;;107203;1250;61254;-81
2023/06/21 06:16:32;;;;;;;18.50;14.90;;;;;;;;;;107278;1251;61250;-81
2023/06/21 06:18:58;;;;;;;19.40;13.90;;;;;;;;;;107380;1254;61352;-81
2023/06/21 06:21:24;;;;;;;18.90;15.00;;;;;;;;;;107433;1251;59905;-81
2023/06/21 06:23:51;;;;;;;20.60;13.00;;;;;;;;;;107421;1253;61219;-81
2023/06/21 06:26:20;;;;;;;17.40;14.10;;;;;;;;;;107323;1251;61268;-81
2023/06/21 06:28:46;;;;;;;18.60;13.40;;;;;;;;;;107393;1251;61168;-81
2023/06/21 06:31:13;;;;;;;18.60;14.70;;;;;;;;;;107239;1254;61393;-81
2023/06/21 06:33:39;;;;;;;16.50;14.20;;;;;;;;;;107392;1251;61269;-81
2023/06/21 06:36:06;;;;;;;17.50;14.70;;;;;;;;;;107710;1251;61258;-81
2023/06/21 06:38:32;;;;;;;17.70;13.10;;;;;;;;;;106959;1254;61201;-81
2023/06/21 06:40:59;;;;;;;16.70;13.60;;;;;;;;;;107467;1252;61409;-81
2023/06/21 06:43:26;;;;;;;19.70;14.00;;;;;;;;;;107450;1254;59405;-81
2023/06/21 06:45:52;;;;;;;23.10;18.30;;;;;;;;;;107428;1251;63052;-81
2023/06/21 06:48:18;;;;;;;17.40;13.90;;;;;;;;;;107572;1254;61430;-82
2023/06/21 06:50:45;;;;;;;15.80;13.20;;;;;;;;;;107374;1251;61364;-81
2023/06/21 06:53:11;;;;;;;14.60;13.10;;;;;;;;;;107429;1251;61244;-81
2023/06/21 06:55:38;;;;;;;14.10;12.60;;;;;;;;;;107381;1251;63423;-81
2023/06/21 06:58:04;;;;;;;20.20;12.80;;;;;;;;;;107329;1251;61237;-81
2023/06/21 07:00:31;;;;;;;15.70;13.00;;;;;;;;;;107372;1255;60975;-81
2023/06/21 07:02:58;;;;;;;19.30;12.90;;;;;;;;;;107539;1254;61413;-81
2023/06/21 07:05:24;;;;;;;17.30;13.40;;;;;;;;;;107380;1251;61234;-81
2023/06/21 07:07:50;;;;;;;15.70;12.20;;;;;;;;;;107060;1251;164151;-81
2023/06/21 07:10:17;;;;;;;16.40;12.40;;;;;;;;;;107210;1251;61225;-81
2023/06/21 07:12:43;;;;;;;13.90;12.50;;;;;;;;;;107348;1254;61291;-81
2023/06/21 07:15:10;;;;;;;23.30;13.30;;;;;;;;;;107201;1254;61325;-81
2023/06/21 07:17:36;;;;;;;16.70;14.00;;;;;;;;;;107144;1254;59914;-81
2023/06/21 07:20:06;;;;;;;15.40;12.60;;;;;;;;;;107224;1251;59609;-81
2023/06/21 07:22:32;;;;;;;18.70;13.40;;;;;;;;;;107248;1251;61115;-81
2023/06/21 07:24:59;;;;;;;18.50;11.80;;;;;;;;;;107315;1249;61221;-82
2023/06/21 07:27:29;;;;;;;14.30;11.90;;;;;;;;;;107236;1254;59491;-81
2023/06/21 07:29:55;;;;;;;30.30;13.50;;;;;;;;;;107273;1251;61090;-81
2023/06/21 07:32:22;;;;;;;18.50;14.00;;;;;;;;;;107219;1251;61074;-81
2023/06/21 07:34:48;;;;;;;17.50;13.50;;;;;;;;;;107278;1251;61250;-81
2023/06/21 07:37:14;;;;;;;15.40;13.40;;;;;;;;;;107296;1254;59233;-81
2023/06/21 07:39:41;;;;;;;17.00;15.20;;;;;;;;;;107237;1251;61277;-81
2023/06/21 07:42:08;;;;;;;13.80;12.50;;;;;;;;;;107459;1251;59246;-81
2023/06/21 07:44:35;;;;;;;14.30;12.70;;;;;;;;;;107323;1251;61134;-82
2023/06/21 07:47:01;;;;;;;18.10;12.70;;;;;;;;;;107352;1251;61334;-81
2023/06/21 07:49:28;;;;;;;14.90;13.40;;;;;;;;;;107421;1250;61310;-82
2023/06/21 07:51:54;;;;;;;14.20;11.10;;;;;;;;;;107362;1251;61283;-82
2023/06/21 07:54:20;;;;;;;15.90;12.30;;;;;;;;;;107295;1251;61280;-82
2023/06/21 07:56:47;;;;;;;14.20;11.20;;;;;;;;;;107286;1251;61265;-82
2023/06/21 07:59:13;;;;;;;14.10;11.70;;;;;;;;;;107216;1254;61259;-82
2023/06/21 08:01:39;;;;;;;14.90;12.30;;;;;;;;;;107384;1251;60778;-82
2023/06/21 08:04:06;;;;;;;15.30;9.90;;;;;;;;;;107223;1251;61248;-82
2023/06/21 08:06:32;;;;;;;11.30;10.10;;;;;;;;;;107210;1254;60290;-82
2023/06/21 08:08:58;;;;;;;16.60;10.00;;;;;;;;;;107257;1251;61277;-82
2023/06/21 08:11:25;;;;;;;10.70;9.00;;;;;;;;;;107386;1251;60290;-82
2023/06/21 08:13:51;;;;;;;10.90;8.50;;;;;;;;;;107287;1253;59803;-82
2023/06/21 08:16:18;;;;;;;9.10;8.20;;;;;;;;;;107202;1254;61262;-82
2023/06/21 08:18:44;;;;;;;10.00;8.00;;;;;;;;;;107214;1251;62038;-82
2023/06/21 08:21:10;;;;;;;10.70;9.40;;;;;;;;;;107346;1251;61352;-82
2023/06/21 08:23:37;;;;;;;9.50;8.20;;;;;;;;;;107398;1251;61244;-82
2023/06/21 08:26:03;;;;;;;11.30;9.10;;;;;;;;;;107343;1250;62087;-83
2023/06/21 08:28:30;;;;;;;10.80;8.90;;;;;;;;;;107197;1251;61758;-82
2023/06/21 08:30:57;;;;;;;12.10;10.70;;;;;;;;;;107301;1251;61234;-82
2023/06/21 08:33:23;;;;;;;10.90;8.40;;;;;;;;;;107378;1254;61403;-82
2023/06/21 08:35:50;;;;;;;8.20;7.00;;;;;;;;;;107284;1251;61259;-83
2023/06/21 08:38:16;;;;;;;9.00;7.90;;;;;;;;;;107304;1250;61302;-82
2023/06/21 08:40:42;;;;;;;12.60;7.90;;;;;;;;;;107285;1251;61281;-81
2023/06/21 08:43:09;;;;;;;11.20;8.40;;;;;;;;;;107324;1251;61333;-82
2023/06/21 08:45:35;;;;;;;10.90;8.40;;;;;;;;;;107372;1249;59436;-83
2023/06/21 08:48:02;;;;;;;11.20;8.70;;;;;;;;;;107413;1251;61336;-82
2023/06/21 08:50:28;;;;;;;9.20;6.90;;;;;;;;;;107241;1254;61966;-82
2023/06/21 08:52:55;;;;;;;7.80;6.80;;;;;;;;;;107378;1251;63172;-82
2023/06/21 08:55:23;;;;;;;10.10;7.40;;;;;;;;;;107209;1251;61262;-82
2023/06/21 08:57:56;;;;;;;11.50;7.60;;;;;;;;;;107319;1251;61235;-82
2023/06/21 09:00:25;;;;;;;10.30;7.70;;;;;;;;;;107249;1251;62740;-82
2023/06/21 09:03:03;;;;;;;8.70;7.20;;;;;;;;;;107255;1251;61426;-82
2023/06/21 09:05:44;;;;;;;9.30;6.70;;;;;;;;;;107257;1252;61236;-82
2023/06/21 09:08:11;;;;;;;8.20;7.40;;;;;;;;;;107208;1251;61434;-82
2023/06/21 09:10:38;;;;;;;8.50;7.60;;;;;;;;;;107248;1250;61199;-82
2023/06/21 09:13:04;;;;;;;8.50;6.90;;;;;;;;;;109659;1249;61929;-82
2023/06/21 09:15:32;;;;;;;9.90;7.50;;;;;;;;;;109504;1251;59193;-82
2023/06/21 09:17:59;;;;;;;9.70;7.80;;;;;;;;;;109492;1251;60104;-83
2023/06/21 09:20:28;;;;;;;8.70;7.80;;;;;;;;;;109472;1250;59287;-82
2023/06/21 09:22:57;;;;;;;15.30;8.40;;;;;;;;;;109553;1250;58856;-82
2023/06/21 09:25:24;;;;;;;11.20;7.90;;;;;;;;;;109488;1251;63117;-82
2023/06/21 09:27:51;;;;;;;9.50;6.80;;;;;;;;;;109565;1251;58930;-83
2023/06/21 09:30:18;;;;;;;9.40;7.50;;;;;;;;;;109481;1251;60842;-82
2023/06/21 09:32:44;;;;;;;7.20;6.50;;;;;;;;;;108218;1251;61340;-82
2023/06/21 09:35:11;;;;;;;9.90;7.10;;;;;;;;;;107396;1251;61271;-82
2023/06/21 09:37:38;;;;;;;8.90;6.90;;;;;;;;;;107269;1250;61274;-81
2023/06/21 09:40:04;;;;;;;7.80;6.80;;;;;;;;;;107308;1250;61075;-82
2023/06/21 09:42:32;;;;;;;8.50;6.70;;;;;;;;;;107235;1251;61293;-82
2023/06/21 09:44:58;;;;;;;10.30;7.20;;;;;;;;;;107327;1255;59594;-82
2023/06/21 09:47:28;;;;;;;13.40;9.40;;;;;;;;;;107324;1250;61136;-81
2023/06/21 09:49:56;;;;;;;16.10;13.00;;;;;;;;;;107319;1253;62645;-82
2023/06/21 09:52:23;;;;;;;;;;;;;;;;;;109552;1251;58936;-82
2023/06/21 09:54:50;;;;;;;11.60;7.40;;;;;;;;;;109504;1251;58958;-82
2023/06/21 09:57:16;;;;;;;13.40;7.40;;;;;;;;;;109512;1250;59069;-82
2023/06/21 09:59:43;;;;;;;13.40;7.40;;;;;;;;;;109539;1250;59045;-82
2023/06/21 10:02:10;;;;;;;10.50;7.40;;;;;;;;;;109283;1251;61285;-82
2023/06/21 10:04:43;;;;;;;9.10;7.10;;;;;;;;;;107230;1255;61279;-82
2023/06/21 10:07:12;;;;;;;13.20;8.20;;;;;;;;;;107221;1251;61367;-82
2023/06/21 10:09:39;;;;;;;12.30;8.00;;;;;;;;;;107287;1251;63345;-82
2023/06/21 10:12:05;;;;;;;11.50;7.60;;;;;;;;;;107333;1251;61254;-82
2023/06/21 10:14:32;;;;;;;9.40;7.40;;;;;;;;;;107307;1250;61313;-82
2023/06/21 10:16:59;;;;;;;9.70;8.50;;;;;;;;;;107308;1252;61235;-81
2023/06/21 10:19:25;;;;;;;11.80;7.20;;;;;;;;;;107284;1255;60255;-82
2023/06/21 10:22:04;;;;;;;9.10;7.70;;;;;;;;;;107343;1251;61295;-82
2023/06/21 10:24:39;;;;;;;15.60;7.50;;;;;;;;;;107450;1250;61321;-82
2023/06/21 10:27:06;;;;;;;13.10;8.00;;;;;;;;;;107297;1253;61991;-82
2023/06/21 10:29:33;;;;;;;10.90;7.80;;;;;;;;;;107315;1251;61197;-82
2023/06/21 10:32:00;;;;;;;8.70;7.10;;;;;;;;;;107269;1253;60659;-81
2023/06/21 10:34:29;;;;;;;8.30;7.40;;;;;;;;;;107303;1251;61330;-81
2023/06/21 10:37:00;;;;;;;19.40;7.70;;;;;;;;;;107282;1254;61341;-82
2023/06/21 10:39:27;;;;;;;9.80;7.50;;;;;;;;;;107357;1253;62907;-82
2023/06/21 10:41:53;;;;;;;17.70;7.50;;;;;;;;;;107521;1251;61302;-82
2023/06/21 10:44:20;;;;;;;13.40;7.40;;;;;;;;;;107378;1251;61372;-82
2023/06/21 10:46:46;;;;;;;9.00;8.10;;;;;;;;;;107267;1251;61342;-82
2023/06/21 10:49:14;;;;;;;12.90;7.80;;;;;;;;;;107123;1251;61271;-82
2023/06/21 10:51:41;;;;;;;14.40;8.10;;;;;;;;;;107376;1254;62652;-82
2023/06/21 10:54:08;;;;;;;8.50;7.50;;;;;;;;;;107257;1251;61397;-82
2023/06/21 10:56:34;;;;;;;11.60;8.00;;;;;;;;;;107321;1251;61331;-82
2023/06/21 10:59:01;;;;;;;11.20;8.00;;;;;;;;;;107339;1251;59420;-82
2023/06/21 11:01:27;;;;;;;9.20;7.60;;;;;;;;;;107333;1251;59125;-81
2023/06/21 11:03:53;;;;;;;9.30;8.30;;;;;;;;;;107299;1251;59769;-82
2023/06/21 11:06:20;;;;;;;13.10;8.40;;;;;;;;;;107183;1252;59931;-82
2023/06/21 11:08:46;;;;;;;13.60;7.90;;;;;;;;;;107208;1251;61307;-82
2023/06/21 11:11:29;;;;;;;10.10;8.20;;;;;;;;;;107314;1251;62409;-81
2023/06/21 11:13:55;;;;;;;9.50;8.20;;;;;;;;;;107350;1254;61157;-82
2023/06/21 11:16:23;;;;;;;11.20;8.40;;;;;;;;;;107349;1253;61268;-81
2023/06/21 11:18:55;;;;;;;14.20;9.00;;;;;;;;;;107326;1249;61350;-81
2023/06/21 11:21:40;;;;;;;13.30;9.20;;;;;;;;;;107474;1250;61128;-81
2023/06/21 11:24:10;;;;;;;11.10;8.80;;;;;;;;;;107354;1251;61179;-82
2023/06/21 11:27:13;;;;;;;13.90;9.70;;;;;;;;;;107179;1251;61275;-81
2023/06/21 11:29:40;;;;;;;12.20;8.50;;;;;;;;;;106803;1259;63067;-82
2023/06/21 11:32:07;;;;;;;13.40;9.00;;;;;;;;;;107257;1251;60995;-81
2023/06/21 11:34:33;;;;;;;13.10;8.60;;;;;;;;;;107278;1251;61282;-81
2023/06/21 11:37:18;;;;;;;15.70;10.80;;;;;;;;;;107286;1250;61264;-81
2023/06/21 11:39:44;;;;;;;13.30;10.00;;;;;;;;;;107198;1251;61114;-81
2023/06/21 11:42:14;;;;;;;12.30;9.80;;;;;;;;;;107366;1251;61170;-81
2023/06/21 11:44:41;;;;;;;14.50;10.20;;;;;;;;;;107327;1251;61235;-81
2023/06/21 11:47:10;;;;;;;18.30;10.70;;;;;;;;;;107190;1251;61079;-81
2023/06/21 11:49:37;;;;;;;15.20;11.60;;;;;;;;;;107305;1249;61302;-79
2023/06/21 11:52:04;;;;;;;16.10;11.90;;;;;;;;;;107301;1254;61269;-82
2023/06/21 11:54:34;;;;;;;18.60;12.30;;;;;;;;;;107462;1251;64261;-82
2023/06/21 11:57:06;;;;;;;19.80;13.20;;;;;;;;;;107359;1251;61253;-81
2023/06/21 11:59:33;;;;;;;16.50;12.80;;;;;;;;;;107353;1253;61137;-82
2023/06/21 12:02:16;;;;;;;15.40;12.80;;;;;;;;;;107234;1251;61304;-82
2023/06/21 12:04:43;;;;;;;12.20;10.50;;;;;;;;;;107330;1251;61104;-81
2023/06/21 12:07:10;;;;;;;13.50;12.00;;;;;;;;;;107321;1250;62252;-81
2023/06/21 12:09:39;;;;;;;11.80;9.80;;;;;;;;;;107222;1251;61295;-81
2023/06/21 12:12:06;;;;;;;17.70;12.50;;;;;;;;;;107384;1251;59611;-82
2023/06/21 12:14:32;;;;;;;11.60;10.20;;;;;;;;;;107385;1251;61300;-82
2023/06/21 12:17:00;;;;;;;15.60;9.60;;;;;;;;;;107238;1250;61354;-82
2023/06/21 12:19:26;;;;;;;10.60;8.40;;;;;;;;;;107386;1253;62207;-81
2023/06/21 12:21:58;;;;;;;13.70;8.10;;;;;;;;;;107627;1251;61395;-82
2023/06/21 12:24:25;;;;;;;13.00;8.00;;;;;;;;;;107669;1251;61434;-82
2023/06/21 12:26:53;;;;;;;10.70;7.90;;;;;;;;;;107760;1251;61301;-82
2023/06/21 12:29:20;;;;;;;13.20;9.50;;;;;;;;;;107415;1254;61110;-82
2023/06/21 12:31:46;;;;;;;9.50;8.20;;;;;;;;;;107358;1251;61174;-82
2023/06/21 12:34:16;;;;;;;10.90;7.60;;;;;;;;;;107338;1251;61296;-82
2023/06/21 12:36:45;;;;;;;10.80;8.40;;;;;;;;;;107213;1251;61112;-81
2023/06/21 12:39:14;;;;;;;13.00;9.30;;;;;;;;;;107408;1251;61475;-81
2023/06/21 12:41:41;;;;;;;11.20;9.40;;;;;;;;;;107308;1251;61178;-83
2023/06/21 12:44:26;;;;;;;12.50;9.60;;;;;;;;;;107491;1250;61981;-81
2023/06/21 12:46:53;;;;;;;10.20;8.40;;;;;;;;;;107379;1250;59336;-81
2023/06/21 12:49:19;;;;;;;11.40;6.70;;;;;;;;;;107337;1251;61103;-81
2023/06/21 12:51:46;;;;;;;7.80;6.80;;;;;;;;;;107331;1251;61224;-82
2023/06/21 12:54:19;;;;;;;6.60;5.00;;;;;;;;;;107512;1253;61341;-82
2023/06/21 12:56:47;;;;;;;7.50;4.80;;;;;;;;;;107178;1252;63342;-81
2023/06/21 12:59:13;;;;;;;5.20;4.00;;;;;;;;;;107336;1253;61248;-81
2023/06/21 13:01:40;;;;;;;6.40;3.90;;;;;;;;;;107414;1251;61264;-82
2023/06/21 13:04:10;;;;;;;4.90;3.70;;;;;;;;;;107309;1249;61165;-82
2023/06/21 13:06:36;;;;;;;5.40;3.70;;;;;;;;;;107187;1250;61280;-82
2023/06/21 13:09:03;;;;;;;5.10;3.30;;;;;;;;;;107425;1251;59470;-81
2023/06/21 13:11:29;;;;;;;4.30;2.90;;;;;;;;;;107332;1251;61366;-83
2023/06/21 13:13:56;;;;;;;6.30;2.90;;;;;;;;;;107443;1252;61132;-82
2023/06/21 13:16:22;;;;;;;4.70;3.20;;;;;;;;;;107258;1251;59961;-81
2023/06/21 13:18:49;;;;;;;4.50;3.00;;;;;;;;;;107318;1253;61195;-82
2023/06/21 13:21:16;;;;;;;3.20;2.80;;;;;;;;;;107486;1251;61330;-82
2023/06/21 13:23:43;;;;;;;5.40;3.60;;;;;;;;;;107554;1253;61945;-82
2023/06/21 13:26:09;;;;;;;3.20;2.80;;;;;;;;;;107405;1251;61356;-82
2023/06/21 13:28:35;;;;;;;3.40;2.90;;;;;;;;;;107215;1251;61245;-82
2023/06/21 13:31:02;;;;;;;3.90;2.80;;;;;;;;;;107240;1251;61156;-82
2023/06/21 13:33:28;;;;;;;4.20;2.60;;;;;;;;;;107411;1254;61258;-83
2023/06/21 13:35:55;;;;;;;5.50;2.60;;;;;;;;;;107189;1253;61429;-83
2023/06/21 13:38:21;;;;;;;2.60;2.40;;;;;;;;;;107115;1254;61283;-83
2023/06/21 13:40:48;;;;;;;3.50;2.50;;;;;;;;;;107463;1253;61140;-83
2023/06/21 13:43:14;;;;;;;3.80;2.30;;;;;;;;;;107495;1252;61109;-83
2023/06/21 13:45:41;;;;;;;3.80;2.70;;;;;;;;;;107248;1251;61060;-82
2023/06/21 13:48:08;;;;;;;3.40;2.60;;;;;;;;;;107293;1254;61327;-83
2023/06/21 13:50:35;;;;;;;4.30;3.00;;;;;;;;;;107365;1251;62982;-83
2023/06/21 13:53:01;;;;;;;4.90;3.20;;;;;;;;;;107290;1251;61153;-83
2023/06/21 13:55:28;;;;;;;5.50;5.00;;;;;;;;;;107329;1251;59780;-83
2023/06/21 13:57:54;;;;;;;5.10;3.00;;;;;;;;;;107237;1254;61199;-83
2023/06/21 14:00:21;;;;;;;3.60;2.90;;;;;;;;;;107289;1254;59179;-83
2023/06/21 14:02:47;;;;;;;4.80;3.40;;;;;;;;;;107414;1254;59110;-83
2023/06/21 14:05:15;;;;;;;4.00;3.00;;;;;;;;;;107268;1251;61281;-83
2023/06/21 14:07:44;;;;;;;5.80;3.20;;;;;;;;;;107115;1253;61150;-83
2023/06/21 14:10:11;;;;;;;3.50;3.00;;;;;;;;;;107226;1254;61781;-83
2023/06/21 14:12:37;;;;;;;6.50;2.90;;;;;;;;;;107226;1254;61185;-83